M I D A S
Marine Information and Data Acquisition System
Tripno 2246 of the Zeeleeuw from 2011-11-23 07:52:18 to 2011-11-23 15:39:22
Back to CruiseResearch ActivitiesStationsMapUnderway DataData graphs

EquipmentUnitsComment
TimeDGPSUTC
LatitudeDGPSDM.mWGS84
LongitudeDGPSDM.mWGS84
HeadingGyrodeg 
SOGDGPSknotsSpeed over ground
COGDGPSdegCourse over ground
DepthEcho soundermeters200 kHz
Missing or incorrect values are displayed as -999
Navigation data collected by the RV Zeeleeuw from 2011-11-23 07:42:10 to 2011-11-23 15:48:23
                                                                                    Next 1000 lines
Time Latitude Longitude Heading SOG COG Depth
2011-11-23 07:42:20 51°13.636 2°56.02 125.6 0.1 58 9.2
2011-11-23 07:42:25 51°13.636 2°56.02 125.7 -999 44 9.1
2011-11-23 07:42:30 51°13.636 2°56.02 125.9 -999 192 9.2
2011-11-23 07:42:36 51°13.636 2°56.02 126 0.1 222 9.2
2011-11-23 07:42:40 51°13.636 2°56.02 126 -999 117 9.2
2011-11-23 07:42:46 51°13.636 2°56.02 126.1 -999 263 9.2
2011-11-23 07:42:51 51°13.636 2°56.02 126.1 -999 249 9.1
2011-11-23 07:42:56 51°13.636 2°56.02 126.1 -999 353 9.2
2011-11-23 07:43:01 51°13.636 2°56.02 126.1 0.1 213 9.2
2011-11-23 07:43:06 51°13.636 2°56.02 126 0.1 233 9.2
2011-11-23 07:43:11 51°13.636 2°56.02 125.9 -999 2 9.2
2011-11-23 07:43:16 51°13.636 2°56.02 125.8 0.1 17 9.2
2011-11-23 07:43:21 51°13.636 2°56.02 125.8 0.1 214 9.1
2011-11-23 07:43:26 51°13.636 2°56.02 125.7 -999 100 9.2
2011-11-23 07:43:31 51°13.636 2°56.02 125.7 -999 180 9.1
2011-11-23 07:43:36 51°13.636 2°56.02 125.7 -999 182 9.2
2011-11-23 07:43:41 51°13.636 2°56.02 125.7 -999 56 9.2
2011-11-23 07:43:46 51°13.636 2°56.02 125.7 -999 182 9.1
2011-11-23 07:43:51 51°13.636 2°56.02 125.7 0.1 201 9.2
2011-11-23 07:43:56 51°13.636 2°56.02 125.7 -999 161 9.2
2011-11-23 07:44:01 51°13.636 2°56.02 125.7 0.1 76 9.2
2011-11-23 07:44:06 51°13.636 2°56.02 125.7 -999 200 9.2
2011-11-23 07:44:11 51°13.636 2°56.02 125.7 0.1 231 9.2
2011-11-23 07:44:16 51°13.636 2°56.02 125.7 -999 284 9.1
2011-11-23 07:44:21 51°13.636 2°56.02 125.7 -999 347 9.2
2011-11-23 07:44:26 51°13.637 2°56.02 125.7 0.1 42 9.1
2011-11-23 07:44:31 51°13.637 2°56.02 125.6 0.1 29 9.1
2011-11-23 07:44:36 51°13.636 2°56.02 125.6 -999 143 9.1
2011-11-23 07:44:41 51°13.636 2°56.02 125.5 -999 61 9.1
2011-11-23 07:44:46 51°13.636 2°56.02 125.5 -999 218 9.2
2011-11-23 07:44:51 51°13.636 2°56.019 125.5 0.1 235 9.2
2011-11-23 07:44:56 51°13.636 2°56.019 125.5 -999 275 9.2
2011-11-23 07:45:01 51°13.636 2°56.019 125.5 -999 56 9.2
2011-11-23 07:45:06 51°13.636 2°56.019 125.5 -999 70 9.2
2011-11-23 07:45:11 51°13.636 2°56.019 125.5 0.1 81 9.2
2011-11-23 07:45:16 51°13.636 2°56.019 125.5 0.1 48 9.2
2011-11-23 07:45:21 51°13.636 2°56.019 125.5 -999 196 9.2
2011-11-23 07:45:26 51°13.636 2°56.019 125.4 -999 224 9.1
2011-11-23 07:45:31 51°13.636 2°56.019 125.4 -999 274 9.1
2011-11-23 07:45:36 51°13.636 2°56.019 125.3 0.1 204 9.2
2011-11-23 07:45:41 51°13.636 2°56.019 125.3 0.1 199 9.2
2011-11-23 07:45:46 51°13.636 2°56.019 125.3 -999 108 9.2
2011-11-23 07:45:51 51°13.636 2°56.019 125.3 -999 325 9.2
2011-11-23 07:45:56 51°13.636 2°56.019 125.3 0.1 51 9.2
2011-11-23 07:46:01 51°13.636 2°56.019 125.3 -999 338 9.2
2011-11-23 07:46:06 51°13.636 2°56.019 125.2 -999 279 9.2
2011-11-23 07:46:11 51°13.636 2°56.019 125.2 0.1 45 9.2
2011-11-23 07:46:16 51°13.636 2°56.019 125.2 0.1 55 9.2
2011-11-23 07:46:21 51°13.636 2°56.019 125.2 -999 1 9.2
2011-11-23 07:46:26 51°13.636 2°56.019 125.2 -999 316 9.2
2011-11-23 07:46:31 51°13.636 2°56.019 125.2 -999 51 9.2
2011-11-23 07:46:36 51°13.636 2°56.019 125.2 -999 100 9.2
2011-11-23 07:46:41 51°13.636 2°56.019 124.9 -999 207 9.1
2011-11-23 07:46:46 51°13.636 2°56.019 124.4 0.1 350 9.1
2011-11-23 07:46:51 51°13.636 2°56.019 124.2 0.1 348 9.1
2011-11-23 07:46:56 51°13.636 2°56.019 124.2 0.1 31 9.2
2011-11-23 07:47:01 51°13.636 2°56.019 123.9 0.1 68 9.1
2011-11-23 07:47:06 51°13.636 2°56.019 123.7 0.1 66 9.1
2011-11-23 07:47:11 51°13.636 2°56.019 123.5 0.1 124 9.1
2011-11-23 07:47:16 51°13.636 2°56.019 123.5 -999 280 9.1
2011-11-23 07:47:21 51°13.636 2°56.018 123.4 0.1 17 9.1
2011-11-23 07:47:26 51°13.635 2°56.018 123.4 -999 79 9.2
2011-11-23 07:47:31 51°13.635 2°56.018 123.5 -999 207 9.1
2011-11-23 07:47:36 51°13.635 2°56.018 123.7 -999 355 9.1
2011-11-23 07:47:41 51°13.635 2°56.018 123.7 0.1 153 9.2
2011-11-23 07:47:46 51°13.635 2°56.018 123.8 -999 101 9.2
2011-11-23 07:47:51 51°13.636 2°56.018 124.1 -999 120 9.2
2011-11-23 07:47:55 51°13.636 2°56.018 124.4 -999 181 9.2
2011-11-23 07:48:01 51°13.636 2°56.018 124.8 0.1 196 9.3
2011-11-23 07:48:06 51°13.636 2°56.019 125.2 -999 155 9.3
2011-11-23 07:48:11 51°13.636 2°56.019 125.7 -999 132 9.3
2011-11-23 07:48:15 51°13.636 2°56.019 125.9 -999 70 9.3
2011-11-23 07:48:21 51°13.636 2°56.019 126.1 0.1 39 9.3
2011-11-23 07:48:26 51°13.636 2°56.019 126.1 -999 5 9.3
2011-11-23 07:48:30 51°13.636 2°56.019 126.1 -999 56 9.3
2011-11-23 07:48:35 51°13.636 2°56.019 126.1 0.1 44 9.3
2011-11-23 07:48:40 51°13.636 2°56.019 126.1 -999 321 9.2
2011-11-23 07:48:46 51°13.636 2°56.019 126 0.1 171 9.3
2011-11-23 07:48:51 51°13.636 2°56.019 126 -999 85 9.3
2011-11-23 07:48:56 51°13.636 2°56.019 126 -999 295 9.3
2011-11-23 07:49:01 51°13.636 2°56.019 125.9 -999 263 9.3
2011-11-23 07:49:06 51°13.636 2°56.019 125.7 -999 200 9.3
2011-11-23 07:49:11 51°13.636 2°56.019 125.6 -999 233 9.3
2011-11-23 07:49:16 51°13.636 2°56.019 125.6 -999 76 9.3
2011-11-23 07:49:21 51°13.636 2°56.019 125.6 -999 322 9.3
2011-11-23 07:49:26 51°13.636 2°56.019 125.7 -999 228 9.3
2011-11-23 07:49:31 51°13.636 2°56.019 125.9 -999 16 9.3
2011-11-23 07:49:36 51°13.636 2°56.019 126 -999 341 9.3
2011-11-23 07:49:41 51°13.636 2°56.019 126 -999 21 9.3
2011-11-23 07:49:46 51°13.636 2°56.019 126.1 -999 78 9.3
2011-11-23 07:49:51 51°13.637 2°56.019 126.1 -999 65 9.3
2011-11-23 07:49:56 51°13.637 2°56.019 126.1 -999 229 9.3
2011-11-23 07:50:01 51°13.637 2°56.019 126.1 -999 107 9.3
2011-11-23 07:50:06 51°13.636 2°56.019 126.1 0.1 83 9.3
2011-11-23 07:50:11 51°13.636 2°56.019 126.1 0.1 65 9.3
2011-11-23 07:50:16 51°13.636 2°56.019 126 -999 359 9.4
2011-11-23 07:50:21 51°13.636 2°56.018 126 0.1 222 9.4
2011-11-23 07:50:26 51°13.635 2°56.018 125.9 -999 164 9.3
2011-11-23 07:50:31 51°13.634 2°56.018 125.9 0.1 93 9.4
2011-11-23 07:50:36 51°13.635 2°56.018 125.9 -999 36 9.3
2011-11-23 07:50:41 51°13.635 2°56.018 125.9 0.1 235 9.3
2011-11-23 07:50:46 51°13.635 2°56.018 125.9 0.1 42 9.4
2011-11-23 07:50:51 51°13.635 2°56.018 125.9 0.1 56 9.4
2011-11-23 07:50:56 51°13.635 2°56.018 125.9 0.1 40 9.4
2011-11-23 07:51:01 51°13.635 2°56.018 125.9 0.1 82 9.4
2011-11-23 07:51:06 51°13.635 2°56.018 125.8 -999 192 9.4
2011-11-23 07:51:12 51°13.635 2°56.019 125.4 -999 155 9.3
2011-11-23 07:51:16 51°13.635 2°56.019 124.6 0.1 165 9.3
2011-11-23 07:51:21 51°13.635 2°56.019 123.6 0.1 218 9.3
2011-11-23 07:51:26 51°13.635 2°56.019 123 0.1 219 9.3
2011-11-23 07:51:31 51°13.635 2°56.019 122.3 -999 97 9.3
2011-11-23 07:51:37 51°13.635 2°56.019 121.6 -999 37 9.3
2011-11-23 07:51:41 51°13.635 2°56.019 120.9 0.1 129 9.4
2011-11-23 07:51:46 51°13.635 2°56.019 120.2 0.1 135 9.4
2011-11-23 07:51:51 51°13.635 2°56.019 119.3 0.1 189 9.4
2011-11-23 07:51:56 51°13.635 2°56.019 118.2 0.1 184 9.8
2011-11-23 07:52:01 51°13.635 2°56.019 116.9 0.2 197 9.7
2011-11-23 07:52:06 51°13.635 2°56.019 115.6 0.1 202 9.8
2011-11-23 07:52:11 51°13.634 2°56.019 114.6 0.1 168 9.9
2011-11-23 07:52:16 51°13.634 2°56.019 113 0.1 191 9.9
2011-11-23 07:52:21 51°13.634 2°56.018 111.6 0.1 219 9.9
2011-11-23 07:52:26 51°13.634 2°56.018 110.4 0.1 218 9.9
2011-11-23 07:52:31 51°13.634 2°56.018 109.5 0.2 258 9.9
2011-11-23 07:52:36 51°13.634 2°56.017 108.6 0.5 282 9.9
2011-11-23 07:52:41 51°13.635 2°56.015 108 0.8 286 9.9
2011-11-23 07:52:46 51°13.635 2°56.013 107.9 1.1 293 9.9
2011-11-23 07:52:51 51°13.636 2°56.01 107.9 1.4 288 9.9
2011-11-23 07:52:56 51°13.637 2°56.006 108 1.8 290 9.8
2011-11-23 07:53:01 51°13.638 2°56.002 108.1 2 290 -999
2011-11-23 07:53:07 51°13.639 2°55.996 108.1 2.4 291 -999
2011-11-23 07:53:13 51°13.64 2°55.989 107.7 2.6 286 -999
2011-11-23 07:53:18 51°13.641 2°55.984 107.5 2.7 287 -999
2011-11-23 07:53:24 51°13.643 2°55.977 107.5 2.9 289 -999
2011-11-23 07:53:29 51°13.644 2°55.97 107.6 3 289 -999
2011-11-23 07:53:34 51°13.646 2°55.964 108.3 3.2 289 -999
2011-11-23 07:53:39 51°13.647 2°55.957 109.4 3.3 289 -999
2011-11-23 07:53:44 51°13.649 2°55.95 110.8 3.4 292 -999
2011-11-23 07:53:49 51°13.651 2°55.942 112 3.5 293 -999
2011-11-23 07:53:54 51°13.653 2°55.935 113.2 3.8 293 -999
2011-11-23 07:53:59 51°13.655 2°55.927 114.1 3.9 293 -999
2011-11-23 07:54:04 51°13.657 2°55.919 115.1 4 295 -999
2011-11-23 07:54:09 51°13.66 2°55.911 116.1 4.1 296 -999
2011-11-23 07:54:14 51°13.662 2°55.902 117.2 4.2 297 -999
2011-11-23 07:54:20 51°13.666 2°55.893 118 4.3 298 -999
2011-11-23 07:54:24 51°13.668 2°55.886 118.8 4.3 298 -999
2011-11-23 07:54:29 51°13.671 2°55.878 119.3 4.4 299 -999
2011-11-23 07:54:34 51°13.674 2°55.869 119.8 4.4 299 -999
2011-11-23 07:54:39 51°13.677 2°55.86 120.1 4.5 301 -999
2011-11-23 07:54:45 51°13.681 2°55.85 120.7 4.6 301 -999
2011-11-23 07:54:49 51°13.684 2°55.843 121.6 4.6 303 -999
2011-11-23 07:54:54 51°13.688 2°55.835 122.7 4.6 303 -999
2011-11-23 07:54:59 51°13.691 2°55.826 123.9 4.7 305 -999
2011-11-23 07:55:04 51°13.695 2°55.817 125.1 4.7 305 -999
2011-11-23 07:55:09 51°13.699 2°55.809 126.2 4.8 305 -999
2011-11-23 07:55:14 51°13.703 2°55.801 126.8 4.8 306 -999
2011-11-23 07:55:18 51°13.706 2°55.794 127.1 4.9 307 -999
2011-11-23 07:55:24 51°13.711 2°55.784 127.6 4.8 307 -999
2011-11-23 07:55:29 51°13.715 2°55.775 128.1 4.9 308 -999
2011-11-23 07:55:35 51°13.72 2°55.765 128.7 4.9 308 -999
2011-11-23 07:55:39 51°13.724 2°55.758 129.7 4.9 310 -999
2011-11-23 07:55:45 51°13.729 2°55.748 131.2 4.9 310 -999
2011-11-23 07:55:50 51°13.733 2°55.74 133.1 4.9 312 -999
2011-11-23 07:55:55 51°13.738 2°55.733 135.1 4.8 314 -999
2011-11-23 07:55:59 51°13.742 2°55.727 137.3 4.9 316 -999
2011-11-23 07:56:05 51°13.748 2°55.719 139.1 4.9 319 -999
2011-11-23 07:56:10 51°13.753 2°55.712 141.3 4.8 320 -999
2011-11-23 07:56:15 51°13.759 2°55.705 143.7 4.9 323 -999
2011-11-23 07:56:19 51°13.763 2°55.7 145.9 4.9 325 -999
2011-11-23 07:56:25 51°13.77 2°55.693 148 4.9 328 -999
2011-11-23 07:56:30 51°13.776 2°55.688 149.8 4.9 328 -999
2011-11-23 07:56:34 51°13.781 2°55.683 151.1 5 332 -999
2011-11-23 07:56:39 51°13.787 2°55.678 152.1 5 332 -999
2011-11-23 07:56:45 51°13.795 2°55.672 153.2 5 334 -999
2011-11-23 07:56:50 51°13.801 2°55.667 154.3 5.1 335 -999
2011-11-23 07:56:55 51°13.808 2°55.663 154.9 5.1 335 -999
2011-11-23 07:56:59 51°13.813 2°55.659 155 5.2 337 -999
2011-11-23 07:57:05 51°13.821 2°55.653 155 5.3 336 -999
2011-11-23 07:57:10 51°13.828 2°55.648 155.2 5.3 336 -999
2011-11-23 07:57:15 51°13.834 2°55.644 155.3 5.3 336 -999
2011-11-23 07:57:19 51°13.839 2°55.64 155.4 5.1 336 -999
2011-11-23 07:57:25 51°13.847 2°55.635 156 4.9 338 -999
2011-11-23 07:57:30 51°13.853 2°55.631 157.1 4.8 338 -999
2011-11-23 07:57:35 51°13.859 2°55.627 158.7 4.6 340 -999
2011-11-23 07:57:39 51°13.864 2°55.625 160.5 4.5 340 -999
2011-11-23 07:57:45 51°13.87 2°55.621 162.3 4.2 342 -999
2011-11-23 07:57:50 51°13.876 2°55.619 164.1 4 343 -999
2011-11-23 07:57:54 51°13.88 2°55.617 165.9 3.8 344 -999
2011-11-23 07:57:59 51°13.885 2°55.615 167.8 3.7 345 -999
2011-11-23 07:58:04 51°13.89 2°55.613 169.8 3.5 348 -999
2011-11-23 07:58:09 51°13.894 2°55.612 172.4 3.3 350 -999
2011-11-23 07:58:15 51°13.899 2°55.611 176 3.2 353 12
2011-11-23 07:58:19 51°13.903 2°55.61 178.4 3.1 356 -999
2011-11-23 07:58:24 51°13.907 2°55.61 181.4 3 359 -999
2011-11-23 07:58:28 51°13.911 2°55.61 184.4 2.9 2 11.9
2011-11-23 07:58:33 51°13.914 2°55.61 186.7 2.9 4 11.8
2011-11-23 07:58:39 51°13.919 2°55.611 188.8 2.8 7 -999
2011-11-23 07:58:44 51°13.923 2°55.612 191.4 2.8 9 -999
2011-11-23 07:58:49 51°13.927 2°55.613 194 2.9 10 11.7
2011-11-23 07:58:54 51°13.931 2°55.615 195.6 3 13 11.6
2011-11-23 07:59:00 51°13.936 2°55.617 198.4 3.1 16 -999
2011-11-23 07:59:04 51°13.939 2°55.619 201.5 3 17 -999
2011-11-23 07:59:10 51°13.944 2°55.621 203.8 2.9 20 -999
2011-11-23 07:59:15 51°13.947 2°55.623 206.2 2.8 20 -999
2011-11-23 07:59:20 51°13.951 2°55.626 208 2.6 22 -999
2011-11-23 07:59:24 51°13.953 2°55.628 209.6 2.6 24 -999
2011-11-23 07:59:29 51°13.956 2°55.63 210.9 2.5 25 -999
2011-11-23 07:59:34 51°13.959 2°55.632 211.8 2.3 27 11.2
2011-11-23 07:59:39 51°13.962 2°55.634 212.8 2.1 26 11.1
2011-11-23 07:59:44 51°13.964 2°55.636 214.2 1.9 28 -999
2011-11-23 07:59:48 51°13.966 2°55.637 215.8 1.6 27 11
2011-11-23 07:59:53 51°13.967 2°55.638 217.8 1.2 28 10.9
2011-11-23 07:59:58 51°13.968 2°55.639 219.5 0.8 18 10.9
2011-11-23 08:00:03 51°13.969 2°55.639 221.5 0.4 359 11
2011-11-23 08:00:09 51°13.969 2°55.638 224.9 0.4 316 10.9
2011-11-23 08:00:13 51°13.97 2°55.637 229.2 0.5 286 10.9
2011-11-23 08:00:18 51°13.97 2°55.635 234.1 0.7 273 11
2011-11-23 08:00:24 51°13.969 2°55.633 239.2 1 270 11
2011-11-23 08:00:29 51°13.969 2°55.63 244.6 1.3 268 11.2
2011-11-23 08:00:33 51°13.969 2°55.627 251.2 1.5 269 11.3
2011-11-23 08:00:38 51°13.969 2°55.624 255.6 1.6 272 11.6
2011-11-23 08:00:43 51°13.97 2°55.62 260.9 1.8 276 11.7
2011-11-23 08:00:48 51°13.97 2°55.615 266.4 2 280 11.9
2011-11-23 08:00:53 51°13.971 2°55.61 271.5 2.2 284 12
2011-11-23 08:00:57 51°13.972 2°55.606 276.8 2.4 287 12.3
2011-11-23 08:01:02 51°13.973 2°55.601 282 2.5 289 12.4
2011-11-23 08:01:07 51°13.974 2°55.596 287 2.6 293 12.4
2011-11-23 08:01:12 51°13.976 2°55.59 292.1 2.8 301 12.4
2011-11-23 08:01:17 51°13.979 2°55.585 297.2 3 304 12.4
2011-11-23 08:01:21 51°13.981 2°55.581 302.8 3.2 309 12.7
2011-11-23 08:01:26 51°13.984 2°55.575 308.9 3.3 313 12.5
2011-11-23 08:01:31 51°13.988 2°55.57 315 3.6 318 12.6
2011-11-23 08:01:37 51°13.993 2°55.563 319.5 3.8 320 12.8
2011-11-23 08:01:41 51°13.996 2°55.559 322.1 4.2 322 12.9
2011-11-23 08:01:46 51°14.001 2°55.553 323.8 4.6 324 12.7
2011-11-23 08:01:51 51°14.007 2°55.547 325 4.9 324 12.7
2011-11-23 08:01:56 51°14.013 2°55.54 325.8 5.2 325 12.9
2011-11-23 08:02:01 51°14.02 2°55.533 326.7 5.7 327 12.6
2011-11-23 08:02:06 51°14.027 2°55.526 327.4 6.2 327 12.3
2011-11-23 08:02:11 51°14.034 2°55.518 327.4 6.6 327 12.4
2011-11-23 08:02:16 51°14.043 2°55.509 327.4 7.1 327 12.4
2011-11-23 08:02:21 51°14.051 2°55.5 327.2 7.3 326 12.1
2011-11-23 08:02:26 51°14.06 2°55.492 327.5 7.6 328 12.1
2011-11-23 08:02:31 51°14.069 2°55.482 328.4 7.8 328 12
2011-11-23 08:02:36 51°14.079 2°55.473 328.7 8.1 328 12.1
2011-11-23 08:02:41 51°14.089 2°55.464 329 8.3 329 12.1
2011-11-23 08:02:45 51°14.097 2°55.456 329.9 8.5 330 12
2011-11-23 08:02:51 51°14.109 2°55.444 329.9 8.7 329 12
2011-11-23 08:02:56 51°14.12 2°55.434 329.2 8.8 329 11.9
2011-11-23 08:03:01 51°14.13 2°55.424 329.7 8.9 330 11.9
2011-11-23 08:03:06 51°14.141 2°55.414 330.6 9.1 330 -999
2011-11-23 08:03:12 51°14.154 2°55.402 330.4 9.2 330 11.9
2011-11-23 08:03:17 51°14.166 2°55.392 330.6 9.3 331 -999
2011-11-23 08:03:23 51°14.18 2°55.38 331.1 9.5 330 -999
2011-11-23 08:03:29 51°14.193 2°55.366 329.6 9.5 328 -999
2011-11-23 08:03:34 51°14.204 2°55.355 328.4 9.6 328 -999
2011-11-23 08:03:40 51°14.219 2°55.342 328.9 9.8 329 -999
2011-11-23 08:03:45 51°14.231 2°55.33 329.6 9.9 329 -999
2011-11-23 08:03:49 51°14.24 2°55.321 329.3 9.9 329 -999
2011-11-23 08:03:54 51°14.252 2°55.311 330.3 10 332 -999
2011-11-23 08:03:59 51°14.265 2°55.3 331.4 10.1 331 -999
2011-11-23 08:04:05 51°14.279 2°55.287 330.8 10.1 330 -999
2011-11-23 08:04:09 51°14.289 2°55.278 330.8 10.2 332 -999
2011-11-23 08:04:14 51°14.302 2°55.267 331.3 10.4 332 11.7
2011-11-23 08:04:19 51°14.315 2°55.256 331 10.6 330 -999
2011-11-23 08:04:24 51°14.328 2°55.244 330.8 10.7 331 -999
2011-11-23 08:04:29 51°14.34 2°55.231 330.2 10.8 328 -999
2011-11-23 08:04:35 51°14.356 2°55.217 329.5 10.9 330 -999
2011-11-23 08:04:39 51°14.366 2°55.207 329.4 11 329 12
2011-11-23 08:04:45 51°14.382 2°55.192 329.7 11 330 -999
2011-11-23 08:04:49 51°14.393 2°55.182 330.4 11.1 328 -999
2011-11-23 08:04:54 51°14.406 2°55.168 328.8 11.1 327 -999
2011-11-23 08:04:59 51°14.419 2°55.155 328.4 11.1 328 12.3
2011-11-23 08:05:05 51°14.434 2°55.139 328.8 11.2 326 -999
2011-11-23 08:05:09 51°14.445 2°55.128 328 11.2 326 12.1
2011-11-23 08:05:14 51°14.457 2°55.114 327.9 11.1 327 12
2011-11-23 08:05:19 51°14.47 2°55.1 328.2 11.2 326 12.3
2011-11-23 08:05:24 51°14.483 2°55.086 328.2 11.2 325 12.6
2011-11-23 08:05:29 51°14.496 2°55.072 327 11.2 325 12.7
2011-11-23 08:05:33 51°14.506 2°55.061 326.1 11.1 327 12.8
2011-11-23 08:05:38 51°14.519 2°55.049 326.3 11.1 329 12.9
2011-11-23 08:05:43 51°14.532 2°55.035 326.8 11.1 327 12.8
2011-11-23 08:05:48 51°14.545 2°55.022 326.3 11.2 328 13.1
2011-11-23 08:05:53 51°14.558 2°55.008 326 11.2 326 13.2
2011-11-23 08:05:57 51°14.568 2°54.997 325.1 11.2 326 13.4
2011-11-23 08:06:02 51°14.581 2°54.983 324.5 11.2 325 13.3
2011-11-23 08:06:07 51°14.594 2°54.969 324 11.2 326 13.1
2011-11-23 08:06:12 51°14.607 2°54.956 325 11.2 327 13.1
2011-11-23 08:06:17 51°14.62 2°54.943 326.4 11.2 328 13.1
2011-11-23 08:06:22 51°14.633 2°54.929 326.2 11.2 325 13.2
2011-11-23 08:06:27 51°14.646 2°54.915 324.5 11.2 327 13.1
2011-11-23 08:06:32 51°14.659 2°54.902 324 11.2 327 13
2011-11-23 08:06:37 51°14.673 2°54.89 326.7 11.2 331 12.9
2011-11-23 08:06:41 51°14.684 2°54.88 329.7 11.2 332 12.9
2011-11-23 08:06:46 51°14.698 2°54.87 331.8 11.2 334 12.9
2011-11-23 08:06:51 51°14.712 2°54.86 334 11.2 336 12.9
2011-11-23 08:06:56 51°14.727 2°54.85 336.1 11.2 338 12.8
2011-11-23 08:07:01 51°14.741 2°54.842 337.5 11.2 339 12.7
2011-11-23 08:07:06 51°14.756 2°54.834 339.2 11.3 343 12.6
2011-11-23 08:07:11 51°14.771 2°54.827 341.3 11.2 344 12.2
2011-11-23 08:07:16 51°14.786 2°54.822 344.3 11.2 347 11.4
2011-11-23 08:07:21 51°14.802 2°54.817 346 11.2 348 11.5
2011-11-23 08:07:25 51°14.814 2°54.813 347.6 11.3 351 11.4
2011-11-23 08:07:31 51°14.832 2°54.809 349.9 11.2 354 11.2
2011-11-23 08:07:36 51°14.848 2°54.807 352.1 11.3 354 11.3
2011-11-23 08:07:41 51°14.864 2°54.804 352.7 11.3 355 11.3
2011-11-23 08:07:45 51°14.876 2°54.803 353.6 11.3 356 11
2011-11-23 08:07:51 51°14.895 2°54.801 355 11.3 358 11.4
2011-11-23 08:07:56 51°14.91 2°54.801 357.1 11.3 359 11
2011-11-23 08:08:01 51°14.926 2°54.801 358.9 11.3 -999 10.6
2011-11-23 08:08:06 51°14.942 2°54.802 359.5 11.3 -999 10.9
2011-11-23 08:08:10 51°14.954 2°54.802 359.6 11.3 1 10.7
2011-11-23 08:08:16 51°14.973 2°54.803 0.1 11.3 2 10.7
2011-11-23 08:08:21 51°14.988 2°54.806 2.5 11.3 7 10.6
2011-11-23 08:08:26 51°15.004 2°54.81 6.4 11.2 10 10.7
2011-11-23 08:08:31 51°15.019 2°54.815 9.1 11.2 12 10.7
2011-11-23 08:08:36 51°15.034 2°54.821 11 11.2 13 10.5
2011-11-23 08:08:41 51°15.049 2°54.828 13 11.3 15 10.4
2011-11-23 08:08:46 51°15.064 2°54.835 14.5 11.2 17 10.4
2011-11-23 08:08:51 51°15.079 2°54.844 17 11.2 20 10.3
2011-11-23 08:08:56 51°15.093 2°54.853 19.9 11.2 22 10.2
2011-11-23 08:09:01 51°15.107 2°54.864 22 11.2 25 10.2
2011-11-23 08:09:06 51°15.121 2°54.875 24.2 11.2 25 10.1
2011-11-23 08:09:11 51°15.135 2°54.887 25.5 11.3 28 10.2
2011-11-23 08:09:16 51°15.148 2°54.9 27.3 11.3 30 10
2011-11-23 08:09:21 51°15.161 2°54.914 30 11.2 34 9.8
2011-11-23 08:09:25 51°15.171 2°54.926 33.5 11.3 37 10
2011-11-23 08:09:31 51°15.186 2°54.944 36.4 11.3 38 9.9
2011-11-23 08:09:36 51°15.198 2°54.96 38.2 11.3 40 9.7
2011-11-23 08:09:41 51°15.21 2°54.976 39.8 11.3 41 9.7
2011-11-23 08:09:46 51°15.222 2°54.993 40.9 11.4 42 9.7
2011-11-23 08:09:51 51°15.233 2°55.01 41.5 11.4 43 9.5
2011-11-23 08:09:56 51°15.245 2°55.026 42.1 11.4 42 9.8
2011-11-23 08:10:01 51°15.256 2°55.043 42.1 11.3 43 9.7
2011-11-23 08:10:05 51°15.265 2°55.056 42.2 10.6 43 9.7
2011-11-23 08:10:10 51°15.275 2°55.071 42.2 10 44 9.8
2011-11-23 08:10:16 51°15.287 2°55.089 42.4 9.4 43 9.9
2011-11-23 08:10:21 51°15.296 2°55.102 42.5 8.8 42 9.7
2011-11-23 08:10:25 51°15.302 2°55.112 42.3 8 41 9.8
2011-11-23 08:10:31 51°15.312 2°55.123 40.2 7.5 36 10
2011-11-23 08:10:36 51°15.321 2°55.131 35.7 7 30 9.8
2011-11-23 08:10:41 51°15.329 2°55.137 28.1 6.6 24 9.9
2011-11-23 08:10:45 51°15.336 2°55.14 20.6 6.3 18 10
2011-11-23 08:10:51 51°15.345 2°55.142 14.7 6 11 9.9
2011-11-23 08:10:55 51°15.351 2°55.142 5 5.6 1 9.9
2011-11-23 08:11:01 51°15.36 2°55.14 356.8 5.4 353 10
2011-11-23 08:11:05 51°15.366 2°55.138 348.6 5.2 346 10.1
2011-11-23 08:11:10 51°15.372 2°55.134 341.9 5 338 10
2011-11-23 08:11:16 51°15.379 2°55.127 333.7 4.9 329 10.1
2011-11-23 08:11:21 51°15.384 2°55.12 325.4 4.8 322 10.1
2011-11-23 08:11:26 51°15.388 2°55.113 315.4 4.7 313 10.1
2011-11-23 08:11:31 51°15.392 2°55.104 307.2 4.6 305 10.1
2011-11-23 08:11:36 51°15.394 2°55.095 300.8 4.5 294 10.1
2011-11-23 08:11:41 51°15.396 2°55.085 291.1 4.4 283 10.2
2011-11-23 08:11:46 51°15.396 2°55.076 283.1 4.4 279 10.2
2011-11-23 08:11:51 51°15.396 2°55.066 274.9 4.3 271 10.2
2011-11-23 08:11:56 51°15.395 2°55.056 266.7 4.3 262 10.4
2011-11-23 08:12:01 51°15.393 2°55.048 258.8 4.3 250 10.3
2011-11-23 08:12:06 51°15.391 2°55.039 251 4.3 246 10.2
2011-11-23 08:12:11 51°15.388 2°55.031 243.2 4.3 238 10.4
2011-11-23 08:12:16 51°15.384 2°55.023 235.2 4.4 229 10.2
2011-11-23 08:12:22 51°15.378 2°55.015 229.6 4.5 222 10.4
2011-11-23 08:12:26 51°15.374 2°55.011 222.9 4.6 217 10.3
2011-11-23 08:12:31 51°15.368 2°55.006 216.2 4.7 208 10.2
2011-11-23 08:12:36 51°15.361 2°55.002 208.1 4.8 201 10.2
2011-11-23 08:12:41 51°15.355 2°55 202.6 4.8 194 10.2
2011-11-23 08:12:46 51°15.348 2°55 194.8 4.8 186 10.1
2011-11-23 08:12:51 51°15.341 2°55 186.6 4.9 179 10.2
2011-11-23 08:12:56 51°15.335 2°55.002 179.1 4.9 174 10.1
2011-11-23 08:13:02 51°15.327 2°55.003 174.3 4.9 174 10.1
2011-11-23 08:13:06 51°15.321 2°55.005 173.6 5 172 10.2
2011-11-23 08:13:11 51°15.314 2°55.006 174.5 5 175 10.1
2011-11-23 08:13:16 51°15.307 2°55.007 174.7 5 172 10
2011-11-23 08:13:21 51°15.3 2°55.009 173.8 5 172 10.1
2011-11-23 08:13:26 51°15.293 2°55.011 172.7 5 169 10
2011-11-23 08:13:31 51°15.287 2°55.013 171.2 4.8 169 10
2011-11-23 08:13:36 51°15.28 2°55.016 170.1 4.7 167 10
2011-11-23 08:13:41 51°15.274 2°55.018 168.6 4.6 166 10
2011-11-23 08:13:46 51°15.268 2°55.021 167.1 4.5 164 10
2011-11-23 08:13:51 51°15.263 2°55.024 165.9 4.4 164 10
2011-11-23 08:13:56 51°15.257 2°55.027 164.9 4.2 162 10
2011-11-23 08:14:01 51°15.252 2°55.03 164 4.1 161 9.9
2011-11-23 08:14:06 51°15.246 2°55.033 163.4 4.1 160 10
2011-11-23 08:14:11 51°15.241 2°55.036 163.3 4.1 160 10
2011-11-23 08:14:16 51°15.236 2°55.039 163.1 4 160 10
2011-11-23 08:14:22 51°15.229 2°55.043 163 4 160 10
2011-11-23 08:14:26 51°15.225 2°55.045 163 3.9 160 10.1
2011-11-23 08:14:31 51°15.221 2°55.048 163.3 3.8 161 10
2011-11-23 08:14:37 51°15.215 2°55.051 164 3.7 162 10
2011-11-23 08:14:41 51°15.211 2°55.052 165.9 3.6 165 10.1
2011-11-23 08:14:46 51°15.206 2°55.054 168.9 3.5 167 10.1
2011-11-23 08:14:51 51°15.202 2°55.055 172.1 3.4 170 10.2
2011-11-23 08:14:56 51°15.197 2°55.056 175.9 3.2 173 10.2
2011-11-23 08:15:01 51°15.193 2°55.056 180.1 3.2 178 10.2
2011-11-23 08:15:06 51°15.189 2°55.056 183.7 3 181 10.2
2011-11-23 08:15:11 51°15.185 2°55.056 186.6 2.9 182 10.3
2011-11-23 08:15:16 51°15.181 2°55.055 190 2.9 187 10.2
2011-11-23 08:15:21 51°15.177 2°55.054 193.5 2.8 190 10.3
2011-11-23 08:15:26 51°15.173 2°55.053 196.9 2.7 194 10.3
2011-11-23 08:15:31 51°15.17 2°55.051 200.4 2.7 197 10.3
2011-11-23 08:15:36 51°15.166 2°55.049 203.8 2.7 200 10.5
2011-11-23 08:15:41 51°15.163 2°55.046 207.5 2.7 204 10.4
2011-11-23 08:15:46 51°15.16 2°55.043 212.1 2.6 209 10.4
2011-11-23 08:15:51 51°15.157 2°55.039 215.3 2.6 212 10.6
2011-11-23 08:15:56 51°15.154 2°55.036 219.3 2.7 216 10.5
2011-11-23 08:16:01 51°15.151 2°55.032 222.9 2.6 219 10.5
2011-11-23 08:16:06 51°15.148 2°55.028 226.1 2.7 222 10.6
2011-11-23 08:16:11 51°15.146 2°55.024 227.4 2.7 223 10.4
2011-11-23 08:16:16 51°15.143 2°55.02 228.6 2.8 224 10.5
2011-11-23 08:16:21 51°15.14 2°55.015 229.4 3 227 10.5
2011-11-23 08:16:26 51°15.137 2°55.01 230.1 3 227 10.5
2011-11-23 08:16:31 51°15.134 2°55.005 230.4 3.1 226 10.5
2011-11-23 08:16:36 51°15.131 2°55 230.5 3.1 227 10.4
2011-11-23 08:16:42 51°15.127 2°54.994 230.5 3.3 227 10.6
2011-11-23 08:16:46 51°15.125 2°54.99 230.1 3.3 227 10.6
2011-11-23 08:16:51 51°15.121 2°54.984 229.8 3.4 225 10.5
2011-11-23 08:16:57 51°15.117 2°54.978 229 3.5 225 10.6
2011-11-23 08:17:01 51°15.114 2°54.974 228.6 3.5 224 10.7
2011-11-23 08:17:06 51°15.111 2°54.968 227.5 3.6 224 10.5
2011-11-23 08:17:11 51°15.107 2°54.963 227 3.6 223 10.6
2011-11-23 08:17:16 51°15.103 2°54.957 225.8 3.7 223 10.9
2011-11-23 08:17:22 51°15.099 2°54.951 225.3 3.7 221 10.6
2011-11-23 08:17:26 51°15.095 2°54.947 224.3 3.7 221 10.6
2011-11-23 08:17:31 51°15.091 2°54.942 222.5 3.8 215 10.7
2011-11-23 08:17:36 51°15.087 2°54.937 219.4 3.6 213 10.7
2011-11-23 08:17:41 51°15.082 2°54.934 214.2 3.6 203 10.8
2011-11-23 08:17:46 51°15.078 2°54.931 209.9 3.6 202 10.8
2011-11-23 08:17:51 51°15.073 2°54.93 204.7 3.6 193 10.7
2011-11-23 08:17:56 51°15.068 2°54.929 198.3 3.6 189 10.9
2011-11-23 08:18:01 51°15.063 2°54.929 191.8 3.7 180 10.9
2011-11-23 08:18:06 51°15.057 2°54.93 185.4 3.7 174 10.9
2011-11-23 08:18:11 51°15.052 2°54.932 178.7 3.7 167 11
2011-11-23 08:18:16 51°15.048 2°54.935 172.1 3.8 158 10.9
2011-11-23 08:18:21 51°15.043 2°54.939 165.5 3.9 152 10.8
2011-11-23 08:18:26 51°15.038 2°54.944 157.2 4 147 10.9
2011-11-23 08:18:31 51°15.034 2°54.95 151.7 4 141 11
2011-11-23 08:18:36 51°15.03 2°54.956 144.9 4.1 132 11
2011-11-23 08:18:41 51°15.027 2°54.963 138 4.1 129 11
2011-11-23 08:18:46 51°15.024 2°54.972 131.2 4.2 122 11
2011-11-23 08:18:51 51°15.021 2°54.98 124.2 4.2 113 10.8
2011-11-23 08:18:56 51°15.02 2°54.989 117.4 4.3 109 10.9
2011-11-23 08:19:01 51°15.019 2°54.999 110.7 4.3 100 11.1
2011-11-23 08:19:06 51°15.018 2°55.008 103.4 4.3 96 11
2011-11-23 08:19:11 51°15.018 2°55.018 96.6 4.4 91 11.1
2011-11-23 08:19:16 51°15.019 2°55.028 89.6 4.4 83 11
2011-11-23 08:19:22 51°15.021 2°55.039 82.5 4.4 77 11
2011-11-23 08:19:26 51°15.022 2°55.046 75.4 4.4 71 11
2011-11-23 08:19:31 51°15.025 2°55.055 68.1 4.4 65 10.9
2011-11-23 08:19:36 51°15.029 2°55.063 61.1 4.4 57 10.9
2011-11-23 08:19:42 51°15.033 2°55.072 53.8 4.4 52 10.9
2011-11-23 08:19:46 51°15.037 2°55.078 46.8 4.4 46 11.2
2011-11-23 08:19:51 51°15.042 2°55.084 39.6 4.4 40 10.9
2011-11-23 08:19:56 51°15.047 2°55.089 32.4 4.3 32 11.1
2011-11-23 08:20:01 51°15.052 2°55.093 25.3 4.3 25 11.1
2011-11-23 08:20:06 51°15.058 2°55.095 17.9 4.3 19 11.1
2011-11-23 08:20:11 51°15.063 2°55.097 10.2 4.3 12 11
2011-11-23 08:20:16 51°15.07 2°55.098 2.5 4.4 5 11
2011-11-23 08:20:21 51°15.076 2°55.097 355.5 4.7 358 11
2011-11-23 08:20:26 51°15.084 2°55.097 350.5 5.1 355 11
2011-11-23 08:20:31 51°15.091 2°55.095 348.2 5.5 353 10.9
2011-11-23 08:20:36 51°15.099 2°55.092 346.3 5.9 351 10.9
2011-11-23 08:20:41 51°15.108 2°55.089 345.2 6.3 349 10.8
2011-11-23 08:20:46 51°15.117 2°55.086 344.3 6.5 348 10.8
2011-11-23 08:20:51 51°15.126 2°55.083 343.7 6.7 347 10.8
2011-11-23 08:20:56 51°15.136 2°55.079 343.3 7 346 10.7
2011-11-23 08:21:02 51°15.148 2°55.075 342.8 7.3 346 10.6
2011-11-23 08:21:06 51°15.156 2°55.071 342.5 7.6 346 10.5
2011-11-23 08:21:11 51°15.167 2°55.067 342.4 7.9 346 10.4
2011-11-23 08:21:16 51°15.178 2°55.062 342.6 8.1 346 10.5
2011-11-23 08:21:21 51°15.189 2°55.059 343 8.2 348 10.4
2011-11-23 08:21:26 51°15.201 2°55.055 343.5 8.4 348 10.2
2011-11-23 08:21:31 51°15.212 2°55.055 347.7 8.4 356 10.2
2011-11-23 08:21:36 51°15.224 2°55.056 354.6 8.5 2 10.2
2011-11-23 08:21:41 51°15.236 2°55.059 1.5 8.6 9 10
2011-11-23 08:21:46 51°15.248 2°55.062 7.3 8.8 12 10.3
2011-11-23 08:21:51 51°15.26 2°55.066 9.4 9 11 10
2011-11-23 08:21:56 51°15.273 2°55.071 10.3 9.2 13 10.1
2011-11-23 08:22:02 51°15.288 2°55.077 10.4 9.3 13 10.1
2011-11-23 08:22:06 51°15.298 2°55.081 11.8 9.4 15 10.1
2011-11-23 08:22:11 51°15.31 2°55.087 13.5 9.5 16 10
2011-11-23 08:22:16 51°15.323 2°55.093 14.2 9.5 17 10.1
2011-11-23 08:22:22 51°15.338 2°55.101 15.3 9.6 19 10.1
2011-11-23 08:22:26 51°15.348 2°55.107 17.7 9.6 21 10.2
2011-11-23 08:22:31 51°15.36 2°55.116 20.3 9.7 23 10.2
2011-11-23 08:22:36 51°15.373 2°55.125 21.9 9.7 24 10.2
2011-11-23 08:22:41 51°15.385 2°55.134 23.3 9.7 26 10.3
2011-11-23 08:22:46 51°15.397 2°55.144 24.8 9.7 27 10.3
2011-11-23 08:22:51 51°15.409 2°55.154 25.6 9.8 27 10.4
2011-11-23 08:22:56 51°15.421 2°55.165 26.6 9.9 30 10.3
2011-11-23 08:23:01 51°15.432 2°55.177 28.6 9.9 32 10.4
2011-11-23 08:23:06 51°15.444 2°55.189 31.1 9.9 35 10.5
2011-11-23 08:23:11 51°15.455 2°55.203 33.8 9.9 37 10.3
2011-11-23 08:23:16 51°15.465 2°55.217 36.7 9.9 40 10.4
2011-11-23 08:23:21 51°15.475 2°55.232 39 9.9 42 10.3
2011-11-23 08:23:26 51°15.485 2°55.247 41.8 9.8 44 10.6
2011-11-23 08:23:31 51°15.494 2°55.262 44.3 9.5 47 10.6
2011-11-23 08:23:36 51°15.502 2°55.277 46.7 9.2 49 10.4
2011-11-23 08:23:41 51°15.51 2°55.293 48.8 8.8 51 10.6
2011-11-23 08:23:46 51°15.517 2°55.307 50.8 8.3 52 10.5
2011-11-23 08:23:51 51°15.523 2°55.321 52.4 8 54 10.5
2011-11-23 08:23:56 51°15.529 2°55.334 53.9 7.6 55 10.7
2011-11-23 08:24:01 51°15.535 2°55.348 55 7.2 56 10.6
2011-11-23 08:24:06 51°15.54 2°55.36 56.2 7 56 10.6
2011-11-23 08:24:11 51°15.545 2°55.373 56.8 6.7 57 10.6
2011-11-23 08:24:16 51°15.55 2°55.385 57.4 6.5 58 10.6
2011-11-23 08:24:21 51°15.554 2°55.397 58 6.3 58 10.7
2011-11-23 08:24:26 51°15.559 2°55.408 58.2 6.1 59 10.6
2011-11-23 08:24:31 51°15.563 2°55.419 57.9 5.9 58 10.7
2011-11-23 08:24:36 51°15.567 2°55.43 57.6 5.8 57 10.6
2011-11-23 08:24:41 51°15.571 2°55.44 57.2 5.6 57 10.7
2011-11-23 08:24:46 51°15.576 2°55.45 56.2 5.5 56 10.6
2011-11-23 08:24:51 51°15.58 2°55.46 55.4 5.5 56 10.6
2011-11-23 08:24:56 51°15.584 2°55.47 54.8 5.3 55 10.8
2011-11-23 08:25:01 51°15.588 2°55.479 54.2 5.3 55 10.7
2011-11-23 08:25:06 51°15.593 2°55.489 53.3 5.3 54 10.7
2011-11-23 08:25:11 51°15.597 2°55.498 52.5 5.3 53 10.6
2011-11-23 08:25:16 51°15.601 2°55.507 51.8 5.2 53 10.6
2011-11-23 08:25:21 51°15.606 2°55.517 51.2 5.2 53 10.7
2011-11-23 08:25:26 51°15.61 2°55.526 50.4 5.3 52 10.7
2011-11-23 08:25:31 51°15.615 2°55.535 50 5.3 51 10.7
2011-11-23 08:25:36 51°15.619 2°55.544 49.8 5.3 51 10.6
2011-11-23 08:25:41 51°15.624 2°55.554 49.5 5.4 51 10.7
2011-11-23 08:25:46 51°15.629 2°55.563 49.4 5.5 50 10.7
2011-11-23 08:25:51 51°15.634 2°55.572 49.3 5.7 50 10.7
2011-11-23 08:25:57 51°15.64 2°55.584 49.2 5.8 50 10.7
2011-11-23 08:26:01 51°15.645 2°55.592 49.1 5.9 50 10.7
2011-11-23 08:26:06 51°15.65 2°55.602 49.1 6.1 50 10.8
2011-11-23 08:26:11 51°15.656 2°55.613 49.1 6.2 51 10.7
2011-11-23 08:26:16 51°15.661 2°55.623 49.3 6.2 50 10.6
2011-11-23 08:26:21 51°15.666 2°55.635 49.5 6.3 51 10.7
2011-11-23 08:26:26 51°15.672 2°55.645 49.6 6.4 50 10.7
2011-11-23 08:26:31 51°15.678 2°55.656 49.6 6.5 51 10.7
2011-11-23 08:26:36 51°15.684 2°55.668 49.6 6.6 51 10.8
2011-11-23 08:26:41 51°15.689 2°55.679 49.6 6.6 51 10.7
2011-11-23 08:26:46 51°15.695 2°55.69 49.9 6.6 51 10.8
2011-11-23 08:26:51 51°15.701 2°55.702 50.1 6.6 51 10.7
2011-11-23 08:26:56 51°15.707 2°55.713 50.1 6.6 51 10.7
2011-11-23 08:27:01 51°15.712 2°55.724 50.8 6.6 52 10.8
2011-11-23 08:27:06 51°15.718 2°55.736 51.3 6.6 52 10.7
2011-11-23 08:27:11 51°15.723 2°55.747 52.4 6.5 54 10.8
2011-11-23 08:27:16 51°15.728 2°55.759 53.4 6.5 54 10.9
2011-11-23 08:27:21 51°15.733 2°55.77 54.2 6.4 55 10.7
2011-11-23 08:27:26 51°15.738 2°55.782 55.3 6.4 56 10.9
2011-11-23 08:27:31 51°15.743 2°55.794 55.9 6.4 56 10.7
2011-11-23 08:27:36 51°15.747 2°55.806 56.7 6.3 58 10.9
2011-11-23 08:27:41 51°15.752 2°55.818 56.9 6.3 57 10.8
2011-11-23 08:27:46 51°15.756 2°55.829 57.2 6.3 58 10.8
2011-11-23 08:27:51 51°15.76 2°55.841 57.5 6.2 58 10.8
2011-11-23 08:27:56 51°15.764 2°55.853 57.7 6.2 58 10.8
2011-11-23 08:28:02 51°15.77 2°55.867 58 6.2 58 10.9
2011-11-23 08:28:06 51°15.773 2°55.876 58.1 6.2 58 10.8
2011-11-23 08:28:11 51°15.777 2°55.888 58.4 6.2 60 10.8
2011-11-23 08:28:16 51°15.781 2°55.9 58.7 6.2 59 10.8
2011-11-23 08:28:21 51°15.785 2°55.912 59 6.2 59 10.7
2011-11-23 08:28:26 51°15.79 2°55.924 59.4 6.2 59 10.8
2011-11-23 08:28:31 51°15.795 2°55.936 59.9 6.2 60 10.9
2011-11-23 08:28:36 51°15.8 2°55.947 60.3 6.2 60 10.8
2011-11-23 08:28:42 51°15.805 2°55.962 60.8 6.1 61 10.7
2011-11-23 08:28:46 51°15.809 2°55.971 61.3 6.2 61 10.9
2011-11-23 08:28:51 51°15.815 2°55.983 61.4 6.2 61 10.9
2011-11-23 08:28:56 51°15.819 2°55.995 61.6 6.1 62 10.8
2011-11-23 08:29:02 51°15.823 2°56.009 61.8 6.1 62 10.9
2011-11-23 08:29:06 51°15.827 2°56.019 61.8 6.1 62 10.8
2011-11-23 08:29:11 51°15.831 2°56.031 61.8 6.1 62 10.9
2011-11-23 08:29:16 51°15.835 2°56.042 61.6 6.2 61 10.8
2011-11-23 08:29:21 51°15.84 2°56.054 61.2 6.1 61 10.9
2011-11-23 08:29:26 51°15.844 2°56.066 60.9 6.2 60 10.8
2011-11-23 08:29:31 51°15.848 2°56.078 60.7 6.2 61 11
2011-11-23 08:29:36 51°15.853 2°56.09 60.5 6.1 61 10.7
2011-11-23 08:29:41 51°15.857 2°56.101 60.3 6.1 61 10.8
2011-11-23 08:29:46 51°15.86 2°56.113 60.3 6.2 61 11
2011-11-23 08:29:51 51°15.864 2°56.125 60.1 6.1 60 10.8
2011-11-23 08:29:56 51°15.869 2°56.136 59.8 6.1 60 10.9
2011-11-23 08:30:01 51°15.873 2°56.148 59.8 6.1 60 11
2011-11-23 08:30:06 51°15.877 2°56.16 59.6 6.1 60 11
2011-11-23 08:30:11 51°15.882 2°56.172 59.2 6.2 59 10.9
2011-11-23 08:30:16 51°15.886 2°56.183 59 6.2 59 11
2011-11-23 08:30:22 51°15.892 2°56.197 58.9 6.2 58 10.9
2011-11-23 08:30:26 51°15.895 2°56.207 58.3 6.2 59 10.9
2011-11-23 08:30:31 51°15.9 2°56.218 58.2 6.2 58 10.8
2011-11-23 08:30:36 51°15.904 2°56.23 58.1 6.2 59 10.9
2011-11-23 08:30:41 51°15.909 2°56.242 57.8 6.2 58 10.9
2011-11-23 08:30:46 51°15.913 2°56.253 57.5 6.2 58 10.8
2011-11-23 08:30:51 51°15.918 2°56.265 57.4 6.2 58 10.9
2011-11-23 08:30:56 51°15.922 2°56.276 57.4 6.2 58 11
2011-11-23 08:31:02 51°15.927 2°56.29 57.4 6.2 57 10.9
2011-11-23 08:31:06 51°15.931 2°56.3 56.8 6.2 58 10.9
2011-11-23 08:31:11 51°15.936 2°56.311 56.7 6.2 57 10.9
2011-11-23 08:31:16 51°15.941 2°56.323 56.7 6.2 57 10.9
2011-11-23 08:31:21 51°15.946 2°56.335 56.5 6.2 57 10.7
2011-11-23 08:31:26 51°15.95 2°56.346 56.7 6.2 57 10.9
2011-11-23 08:31:31 51°15.954 2°56.358 56.6 6.2 57 10.8
2011-11-23 08:31:36 51°15.959 2°56.37 56.6 6.2 57 10.9
2011-11-23 08:31:41 51°15.964 2°56.381 56.6 6.2 57 10.8
2011-11-23 08:31:46 51°15.968 2°56.393 56.5 6.2 57 10.9
2011-11-23 08:31:51 51°15.973 2°56.404 56.3 6.3 57 10.9
2011-11-23 08:31:56 51°15.978 2°56.416 56.2 6.3 56 11.1
2011-11-23 08:32:01 51°15.983 2°56.428 56.2 6.2 56 10.9
2011-11-23 08:32:06 51°15.987 2°56.439 56.2 6.3 57 11
2011-11-23 08:32:11 51°15.992 2°56.451 56.4 6.2 57 10.9
2011-11-23 08:32:16 51°15.997 2°56.462 56.7 6.3 58 11.1
2011-11-23 08:32:21 51°16.002 2°56.474 57.2 6.3 58 10.9
2011-11-23 08:32:26 51°16.006 2°56.486 57.1 6.2 58 10.9
2011-11-23 08:32:31 51°16.011 2°56.498 57.4 6.2 58 10.9
2011-11-23 08:32:36 51°16.015 2°56.509 57.4 6.3 57 11
2011-11-23 08:32:41 51°16.02 2°56.521 57.6 6.2 58 11.1
2011-11-23 08:32:46 51°16.025 2°56.533 57.7 6.3 58 11
2011-11-23 08:32:51 51°16.029 2°56.544 57.8 6.3 58 11
2011-11-23 08:32:56 51°16.034 2°56.555 58 6.3 58 11
2011-11-23 08:33:02 51°16.039 2°56.57 58.1 6.3 58 10.9
2011-11-23 08:33:06 51°16.043 2°56.579 58.3 6.3 58 11
2011-11-23 08:33:11 51°16.047 2°56.591 58.2 6.3 58 10.9
2011-11-23 08:33:17 51°16.053 2°56.605 58.3 6.3 58 11
2011-11-23 08:33:22 51°16.057 2°56.617 58.4 6.3 59 11
2011-11-23 08:33:26 51°16.061 2°56.627 58.7 6.2 59 10.9
2011-11-23 08:33:31 51°16.065 2°56.638 58.4 6.3 59 10.9
2011-11-23 08:33:36 51°16.07 2°56.65 58.6 6.3 58 11
2011-11-23 08:33:41 51°16.075 2°56.662 58.5 6.3 59 10.9
2011-11-23 08:33:46 51°16.079 2°56.674 58.6 6.4 59 10.9
2011-11-23 08:33:51 51°16.083 2°56.686 58.6 6.3 59 10.9
2011-11-23 08:33:56 51°16.088 2°56.698 58.8 6.3 60 11
2011-11-23 08:34:01 51°16.092 2°56.709 58.9 6.3 60 11
2011-11-23 08:34:06 51°16.097 2°56.721 58.9 6.4 59 10.9
2011-11-23 08:34:11 51°16.101 2°56.733 58.9 6.3 60 11
2011-11-23 08:34:16 51°16.106 2°56.745 58.9 6.4 59 10.9
2011-11-23 08:34:22 51°16.111 2°56.76 58.8 6.3 60 10.9
2011-11-23 08:34:26 51°16.115 2°56.77 58.9 6.4 59 10.9
2011-11-23 08:34:31 51°16.119 2°56.781 58.9 6.4 60 10.9
2011-11-23 08:34:36 51°16.124 2°56.793 59.2 6.4 60 11.2
2011-11-23 08:34:41 51°16.128 2°56.806 59.6 6.4 61 10.9
2011-11-23 08:34:46 51°16.132 2°56.819 59.8 6.4 61 11.2
2011-11-23 08:34:51 51°16.137 2°56.831 60.1 6.4 61 10.9
2011-11-23 08:34:56 51°16.141 2°56.843 60.1 6.4 62 11.1
2011-11-23 08:35:01 51°16.146 2°56.855 60.2 6.4 60 10.9
2011-11-23 08:35:06 51°16.15 2°56.868 60.1 6.4 61 10.9
2011-11-23 08:35:11 51°16.155 2°56.88 60.1 6.4 61 10.9
2011-11-23 08:35:16 51°16.159 2°56.893 60.2 6.5 62 11
2011-11-23 08:35:21 51°16.163 2°56.906 60.3 6.4 61 10.9
2011-11-23 08:35:26 51°16.167 2°56.918 60.4 6.4 62 11
2011-11-23 08:35:31 51°16.172 2°56.931 60.9 6.4 62 11
2011-11-23 08:35:36 51°16.176 2°56.943 60.9 6.4 62 11
2011-11-23 08:35:41 51°16.18 2°56.956 60.9 6.5 61 10.9
2011-11-23 08:35:46 51°16.185 2°56.968 60.4 6.4 62 11.1
2011-11-23 08:35:51 51°16.189 2°56.981 60.1 6.5 61 10.9
2011-11-23 08:35:56 51°16.193 2°56.993 59.8 6.4 62 11
2011-11-23 08:36:02 51°16.198 2°57.008 60 6.5 60 11
2011-11-23 08:36:06 51°16.202 2°57.018 59.6 6.5 60 10.9
2011-11-23 08:36:11 51°16.206 2°57.03 59.4 6.4 61 10.9
2011-11-23 08:36:16 51°16.211 2°57.043 58.9 6.4 61 11.1
2011-11-23 08:36:21 51°16.215 2°57.055 58.8 6.4 59 11
2011-11-23 08:36:26 51°16.22 2°57.068 58.5 6.5 60 11.1
2011-11-23 08:36:31 51°16.225 2°57.08 58.1 6.5 59 11
2011-11-23 08:36:36 51°16.229 2°57.092 57.5 6.5 59 11
2011-11-23 08:36:41 51°16.234 2°57.104 57.4 6.5 58 11
2011-11-23 08:36:46 51°16.239 2°57.116 57.1 6.5 59 11.1
2011-11-23 08:36:51 51°16.243 2°57.129 56.7 6.5 59 11
2011-11-23 08:36:56 51°16.248 2°57.141 56.7 6.5 59 11.1
2011-11-23 08:37:02 51°16.254 2°57.155 56.7 6.5 59 11.1
2011-11-23 08:37:06 51°16.257 2°57.165 56.6 6.5 59 11
2011-11-23 08:37:11 51°16.263 2°57.177 56.4 6.5 58 11
2011-11-23 08:37:17 51°16.268 2°57.192 56.4 6.5 58 11.2
2011-11-23 08:37:21 51°16.272 2°57.202 56.3 6.5 58 11.3
2011-11-23 08:37:26 51°16.277 2°57.214 56.2 6.5 58 11.1
2011-11-23 08:37:31 51°16.282 2°57.227 56 6.5 58 11.2
2011-11-23 08:37:36 51°16.286 2°57.239 55.9 6.5 58 11.3
2011-11-23 08:37:42 51°16.292 2°57.254 56 6.5 58 11.2
2011-11-23 08:37:46 51°16.296 2°57.264 55.9 6.5 58 10.9
2011-11-23 08:37:51 51°16.301 2°57.277 56 6.5 59 11.1
2011-11-23 08:37:56 51°16.306 2°57.289 56.1 6.5 58 11.1
2011-11-23 08:38:01 51°16.311 2°57.301 56.2 6.5 58 11
2011-11-23 08:38:06 51°16.316 2°57.313 56.2 6.5 58 11.1
2011-11-23 08:38:11 51°16.32 2°57.326 56.2 6.6 58 11
2011-11-23 08:38:16 51°16.325 2°57.338 56.3 6.5 58 11
2011-11-23 08:38:21 51°16.329 2°57.35 56.6 6.5 58 11.3
2011-11-23 08:38:26 51°16.334 2°57.362 56.7 6.5 58 11.1
2011-11-23 08:38:31 51°16.338 2°57.374 56.7 6.5 59 11.1
2011-11-23 08:38:36 51°16.343 2°57.386 56.7 6.5 58 11.4
2011-11-23 08:38:42 51°16.348 2°57.4 57.2 6.4 59 11.3
2011-11-23 08:38:46 51°16.352 2°57.41 57.3 6.4 58 11.2
2011-11-23 08:38:51 51°16.357 2°57.422 57.4 6.4 59 11.3
2011-11-23 08:38:56 51°16.361 2°57.434 57.6 6.3 59 11.2
2011-11-23 08:39:01 51°16.366 2°57.446 57.7 6.3 59 11.3
2011-11-23 08:39:06 51°16.37 2°57.458 57.8 6.3 59 11.4
2011-11-23 08:39:11 51°16.375 2°57.47 57.8 6.3 60 11.2
2011-11-23 08:39:16 51°16.379 2°57.482 57.9 6.3 59 11.2
2011-11-23 08:39:21 51°16.384 2°57.494 58 6.3 59 11.3
2011-11-23 08:39:26 51°16.389 2°57.505 58 6.3 59 11.4
2011-11-23 08:39:31 51°16.393 2°57.517 58.2 6.3 60 11.5
2011-11-23 08:39:36 51°16.397 2°57.53 58.4 6.3 59 11.3
2011-11-23 08:39:42 51°16.403 2°57.545 58.6 6.3 60 11.4
2011-11-23 08:39:46 51°16.406 2°57.554 58.9 6.3 60 11.4
2011-11-23 08:39:51 51°16.411 2°57.567 59.2 6.3 60 11.4
2011-11-23 08:39:56 51°16.415 2°57.579 59.4 6.3 60 11.5
2011-11-23 08:40:01 51°16.419 2°57.591 59.8 6.3 61 11.5
2011-11-23 08:40:06 51°16.424 2°57.603 60 6.3 61 11.4
2011-11-23 08:40:11 51°16.428 2°57.615 60.2 6.3 61 11.4
2011-11-23 08:40:16 51°16.432 2°57.627 60.4 6.2 61 11.3
2011-11-23 08:40:22 51°16.437 2°57.642 60.6 6.2 62 11.4
2011-11-23 08:40:26 51°16.44 2°57.651 60.6 6.2 62 11.4
2011-11-23 08:40:31 51°16.444 2°57.663 60.9 6.2 61 11.4
2011-11-23 08:40:36 51°16.448 2°57.675 61.1 6.2 62 11.4
2011-11-23 08:40:41 51°16.452 2°57.687 61.1 6.3 62 11.5
2011-11-23 08:40:46 51°16.456 2°57.699 61.1 6.3 61 11.4
2011-11-23 08:40:51 51°16.46 2°57.711 60.9 6.2 62 11.5
2011-11-23 08:40:56 51°16.465 2°57.723 60.8 6.3 61 11.4
2011-11-23 08:41:01 51°16.469 2°57.735 60.6 6.2 62 11.3
2011-11-23 08:41:06 51°16.473 2°57.747 60.7 6.2 62 11.5
2011-11-23 08:41:11 51°16.477 2°57.759 60.8 6.2 62 11.5
2011-11-23 08:41:16 51°16.481 2°57.771 60.6 6.3 60 11.5
2011-11-23 08:41:21 51°16.486 2°57.783 60.3 6.2 62 11.5
2011-11-23 08:41:26 51°16.49 2°57.795 60.2 6.3 60 11.5
2011-11-23 08:41:31 51°16.494 2°57.807 59.6 6.3 61 11.4
2011-11-23 08:41:36 51°16.498 2°57.819 59.5 6.2 60 11.4
2011-11-23 08:41:41 51°16.503 2°57.831 59.1 6.2 60 11.6
2011-11-23 08:41:46 51°16.507 2°57.844 58.9 6.2 60 11.5
2011-11-23 08:41:51 51°16.512 2°57.856 58.7 6.2 60 11.6
2011-11-23 08:41:56 51°16.516 2°57.867 58.4 6.1 59 11.5
2011-11-23 08:42:01 51°16.52 2°57.879 58.2 6 60 11.6
2011-11-23 08:42:06 51°16.524 2°57.89 57.7 5.9 59 11.6
2011-11-23 08:42:11 51°16.528 2°57.901 57.5 5.8 59 11.6
2011-11-23 08:42:16 51°16.532 2°57.912 57.4 5.8 59 11.7
2011-11-23 08:42:21 51°16.536 2°57.922 57.1 5.7 59 11.6
2011-11-23 08:42:26 51°16.541 2°57.933 57 5.6 58 11.5
2011-11-23 08:42:31 51°16.545 2°57.943 56.7 5.6 59 11.7
2011-11-23 08:42:36 51°16.549 2°57.954 56.5 5.5 57 11.6
2011-11-23 08:42:41 51°16.553 2°57.964 56.2 5.5 58 11.6
2011-11-23 08:42:46 51°16.557 2°57.974 55.9 5.4 58 11.6
2011-11-23 08:42:51 51°16.561 2°57.984 55.8 5.4 58 11.5
2011-11-23 08:42:56 51°16.565 2°57.995 55.6 5.4 58 11.7
2011-11-23 08:43:01 51°16.569 2°58.004 55.8 5.4 57 11.7
2011-11-23 08:43:06 51°16.573 2°58.014 56 5.3 59 11.7
2011-11-23 08:43:11 51°16.577 2°58.025 56.1 5.3 58 11.6
2011-11-23 08:43:16 51°16.581 2°58.034 56.2 5.3 58 11.7
2011-11-23 08:43:21 51°16.585 2°58.044 56.2 5.3 58 11.7
2011-11-23 08:43:26 51°16.588 2°58.055 56.3 5.3 58 11.8
2011-11-23 08:43:31 51°16.592 2°58.064 56.5 5.3 59 11.8
2011-11-23 08:43:36 51°16.596 2°58.075 56.7 5.3 60 11.9
2011-11-23 08:43:41 51°16.6 2°58.085 56.9 5.3 59 11.6
2011-11-23 08:43:46 51°16.603 2°58.095 57.1 5.4 60 11.5
2011-11-23 08:43:51 51°16.607 2°58.104 57.7 5.4 59 11.7
2011-11-23 08:43:56 51°16.611 2°58.115 57.8 5.4 61 11.6
2011-11-23 08:44:01 51°16.614 2°58.125 58 5.5 60 11.7
2011-11-23 08:44:06 51°16.618 2°58.137 58.1 5.5 60 11.8
2011-11-23 08:44:11 51°16.623 2°58.147 58.2 5.6 59 11.9
2011-11-23 08:44:16 51°16.626 2°58.158 58.2 5.6 60 11.6
2011-11-23 08:44:21 51°16.63 2°58.169 58.4 5.7 60 11.6
2011-11-23 08:44:26 51°16.634 2°58.18 58.7 5.7 60 11.5
2011-11-23 08:44:31 51°16.638 2°58.19 59 5.7 61 11.7
2011-11-23 08:44:36 51°16.642 2°58.201 58.9 5.7 60 11.9
2011-11-23 08:44:41 51°16.646 2°58.212 59 5.7 61 11.9
2011-11-23 08:44:46 51°16.65 2°58.224 59.2 5.8 61 11.7
2011-11-23 08:44:51 51°16.654 2°58.235 59.4 5.8 60 11.6
2011-11-23 08:44:56 51°16.658 2°58.245 59.6 5.9 60 11.7
2011-11-23 08:45:01 51°16.662 2°58.256 59.7 5.8 61 11.8
2011-11-23 08:45:06 51°16.665 2°58.268 59.8 5.8 61 11.6
2011-11-23 08:45:11 51°16.669 2°58.279 59.8 5.8 61 11.6
2011-11-23 08:45:16 51°16.673 2°58.29 60 5.8 62 11.9
2011-11-23 08:45:21 51°16.677 2°58.302 60.2 5.8 60 11.8
2011-11-23 08:45:26 51°16.681 2°58.313 60.1 5.8 61 11.7
2011-11-23 08:45:31 51°16.685 2°58.324 60.2 5.8 61 11.8
2011-11-23 08:45:36 51°16.689 2°58.335 60.2 5.8 61 11.8
2011-11-23 08:45:41 51°16.693 2°58.347 60.3 5.8 61 11.8
2011-11-23 08:45:46 51°16.697 2°58.358 60.3 5.7 61 11.7
2011-11-23 08:45:51 51°16.701 2°58.369 60.4 5.7 61 11.8
2011-11-23 08:45:56 51°16.705 2°58.38 60.5 5.7 61 11.8
2011-11-23 08:46:01 51°16.709 2°58.39 60.6 5.8 61 11.9
2011-11-23 08:46:06 51°16.712 2°58.402 60.3 5.7 61 11.7
2011-11-23 08:46:11 51°16.716 2°58.414 60.2 5.7 61 11.8
2011-11-23 08:46:16 51°16.72 2°58.425 60.1 5.6 61 12
2011-11-23 08:46:21 51°16.723 2°58.436 59.9 5.6 62 11.9
2011-11-23 08:46:26 51°16.728 2°58.447 59.7 5.6 61 11.8
2011-11-23 08:46:30 51°16.731 2°58.456 59.5 5.6 60 11.8
2011-11-23 08:46:36 51°16.735 2°58.469 59.2 5.5 61 11.9
2011-11-23 08:46:41 51°16.739 2°58.48 58.6 5.6 60 11.8
2011-11-23 08:46:46 51°16.744 2°58.491 58.4 5.8 58 11.8
2011-11-23 08:46:50 51°16.747 2°58.499 57.9 5.7 59 11.8
2011-11-23 08:46:56 51°16.751 2°58.512 57.6 5.6 60 12
2011-11-23 08:47:01 51°16.755 2°58.522 57.4 5.5 60 11.8
2011-11-23 08:47:06 51°16.759 2°58.533 57.4 5.6 60 11.9
2011-11-23 08:47:10 51°16.762 2°58.542 57.8 5.7 60 11.9
2011-11-23 08:47:16 51°16.767 2°58.554 58.2 5.6 59 11.8
2011-11-23 08:47:21 51°16.771 2°58.565 58.6 5.6 60 11.9
2011-11-23 08:47:26 51°16.775 2°58.576 59.3 5.6 60 11.8
2011-11-23 08:47:30 51°16.778 2°58.585 60 5.7 61 11.8
2011-11-23 08:47:36 51°16.782 2°58.598 60.3 5.6 61 11.8
2011-11-23 08:47:41 51°16.786 2°58.609 60.9 5.6 62 11.9
2011-11-23 08:47:46 51°16.79 2°58.62 61.3 5.6 62 11.7
2011-11-23 08:47:51 51°16.793 2°58.631 61.9 5.6 63 11.9
2011-11-23 08:47:56 51°16.797 2°58.642 62.2 5.7 62 11.8
2011-11-23 08:48:01 51°16.801 2°58.653 62.6 5.6 63 11.8
2011-11-23 08:48:06 51°16.804 2°58.664 63.2 5.6 64 11.9
2011-11-23 08:48:10 51°16.807 2°58.673 63.5 5.7 64 11.7
2011-11-23 08:48:16 51°16.811 2°58.686 63.8 5.6 65 11.9
2011-11-23 08:48:21 51°16.814 2°58.698 64.2 5.6 65 11.8
2011-11-23 08:48:26 51°16.817 2°58.709 64.7 5.6 65 11.7
2011-11-23 08:48:30 51°16.82 2°58.718 64.8 5.6 64 11.7
2011-11-23 08:48:36 51°16.824 2°58.731 65 5.6 65 11.9
2011-11-23 08:48:41 51°16.827 2°58.743 65.2 5.6 65 11.9
2011-11-23 08:48:46 51°16.831 2°58.754 65.2 5.7 65 11.8
2011-11-23 08:48:50 51°16.834 2°58.763 65.4 5.6 65 11.8
2011-11-23 08:48:56 51°16.838 2°58.777 65.5 5.6 66 11.9
2011-11-23 08:49:01 51°16.841 2°58.788 65.6 5.6 65 11.6
2011-11-23 08:49:06 51°16.844 2°58.8 66 5.6 67 12
2011-11-23 08:49:10 51°16.846 2°58.808 66.1 5.6 66 11.8
2011-11-23 08:49:16 51°16.85 2°58.822 66.2 5.6 67 11.9
2011-11-23 08:49:21 51°16.853 2°58.834 66.2 5.6 66 11.9
2011-11-23 08:49:26 51°16.857 2°58.845 66.1 5.6 66 11.8
2011-11-23 08:49:30 51°16.859 2°58.854 66 5.6 66 11.9
2011-11-23 08:49:36 51°16.863 2°58.868 65.6 5.6 65 11.7
2011-11-23 08:49:41 51°16.866 2°58.879 65.4 5.6 65 11.7
2011-11-23 08:49:46 51°16.87 2°58.89 65 5.6 65 11.8
2011-11-23 08:49:50 51°16.873 2°58.899 64.7 5.6 64 11.7
2011-11-23 08:49:56 51°16.877 2°58.913 64.6 5.6 65 11.7
2011-11-23 08:50:01 51°16.88 2°58.924 64.2 5.6 65 11.7
2011-11-23 08:50:06 51°16.883 2°58.935 64.1 5.7 65 11.8
2011-11-23 08:50:10 51°16.886 2°58.944 64.2 5.7 65 11.8
2011-11-23 08:50:16 51°16.89 2°58.958 64.3 5.7 64 11.8
2011-11-23 08:50:21 51°16.893 2°58.969 64.3 5.6 65 11.6
2011-11-23 08:50:26 51°16.897 2°58.98 64.4 5.7 65 11.7
2011-11-23 08:50:31 51°16.9 2°58.992 64.1 5.7 64 11.7
2011-11-23 08:50:36 51°16.904 2°59.003 64 5.7 64 11.7
2011-11-23 08:50:41 51°16.907 2°59.014 63.7 5.7 64 11.8
2011-11-23 08:50:46 51°16.911 2°59.025 63.5 5.7 64 11.8
2011-11-23 08:50:50 51°16.914 2°59.034 63.1 5.7 63 11.8
2011-11-23 08:50:56 51°16.918 2°59.048 62.8 5.7 63 11.7
2011-11-23 08:51:01 51°16.921 2°59.059 62.4 5.7 63 11.7
2011-11-23 08:51:06 51°16.925 2°59.07 62.2 5.7 63 11.9
2011-11-23 08:51:10 51°16.928 2°59.079 61.8 5.7 63 11.7
2011-11-23 08:51:16 51°16.933 2°59.092 61.6 5.7 62 11.8
2011-11-23 08:51:21 51°16.936 2°59.103 61.3 5.7 62 11.8
2011-11-23 08:51:26 51°16.94 2°59.114 61.1 5.7 61 11.9
2011-11-23 08:51:30 51°16.943 2°59.123 60.9 5.7 61 11.8
2011-11-23 08:51:36 51°16.948 2°59.136 60.6 5.7 61 11.8
2011-11-23 08:51:41 51°16.952 2°59.147 60.5 5.7 61 11.7
2011-11-23 08:51:46 51°16.956 2°59.158 60.4 5.7 61 11.9
2011-11-23 08:51:50 51°16.958 2°59.167 60.4 5.7 62 11.7
2011-11-23 08:51:56 51°16.963 2°59.181 60.5 5.7 62 11.9
2011-11-23 08:52:01 51°16.967 2°59.192 61.2 5.7 62 11.8
2011-11-23 08:52:06 51°16.97 2°59.203 61.4 5.7 63 11.7
2011-11-23 08:52:11 51°16.974 2°59.214 61.6 5.7 62 11.8
2011-11-23 08:52:16 51°16.978 2°59.225 61.9 5.7 63 11.7
2011-11-23 08:52:21 51°16.981 2°59.237 61.9 5.7 62 11.8
2011-11-23 08:52:26 51°16.985 2°59.248 61.7 5.7 62 11.7
2011-11-23 08:52:30 51°16.988 2°59.257 61.6 5.7 63 11.9
2011-11-23 08:52:36 51°16.992 2°59.27 61.6 5.7 61 11.7
2011-11-23 08:52:41 51°16.996 2°59.282 61.4 5.7 62 11.7
2011-11-23 08:52:46 51°17 2°59.293 61.3 5.7 62 11.8
2011-11-23 08:52:50 51°17.003 2°59.301 61.2 5.7 63 11.7
2011-11-23 08:52:56 51°17.007 2°59.315 61.2 5.7 62 11.9
2011-11-23 08:53:01 51°17.011 2°59.326 61.4 5.7 63 11.8
2011-11-23 08:53:06 51°17.015 2°59.337 61.5 5.7 62 11.7
2011-11-23 08:53:10 51°17.018 2°59.346 61.7 5.7 63 11.9
2011-11-23 08:53:16 51°17.022 2°59.36 61.7 5.8 62 11.8
2011-11-23 08:53:21 51°17.026 2°59.371 61.8 5.7 63 11.7
2011-11-23 08:53:26 51°17.029 2°59.382 61.7 5.7 63 11.9
2011-11-23 08:53:30 51°17.033 2°59.392 62 5.7 63 11.8
2011-11-23 08:53:36 51°17.037 2°59.405 61.9 5.8 62 11.9
2011-11-23 08:53:41 51°17.04 2°59.416 61.9 5.7 63 11.9
2011-11-23 08:53:46 51°17.044 2°59.428 62 5.8 62 11.7
2011-11-23 08:53:50 51°17.047 2°59.437 61.9 5.8 62 11.8
2011-11-23 08:53:56 51°17.052 2°59.451 62 5.8 63 11.8
2011-11-23 08:54:01 51°17.055 2°59.462 62 5.8 63 11.8
2011-11-23 08:54:06 51°17.059 2°59.473 62.3 5.8 62 11.9
2011-11-23 08:54:11 51°17.063 2°59.484 62.5 5.8 63 11.8
2011-11-23 08:54:16 51°17.066 2°59.496 62.7 5.8 63 12
2011-11-23 08:54:21 51°17.07 2°59.508 62.9 5.8 64 11.8
2011-11-23 08:54:26 51°17.074 2°59.519 63.2 5.8 64 11.9
2011-11-23 08:54:30 51°17.076 2°59.528 63.7 5.8 64 11.8
2011-11-23 08:54:36 51°17.081 2°59.542 63.9 5.8 65 11.9
2011-11-23 08:54:41 51°17.084 2°59.554 64.5 5.8 65 11.8
2011-11-23 08:54:46 51°17.087 2°59.566 64.9 5.9 65 11.9
2011-11-23 08:54:51 51°17.091 2°59.577 65.3 5.8 65 11.9
2011-11-23 08:54:56 51°17.094 2°59.589 65.5 5.8 65 11.8
2011-11-23 08:55:01 51°17.097 2°59.601 65.8 5.8 66 11.9
2011-11-23 08:55:06 51°17.101 2°59.612 66 5.8 66 11.9
2011-11-23 08:55:10 51°17.103 2°59.622 66.1 5.9 66 11.9
2011-11-23 08:55:16 51°17.108 2°59.636 66.4 5.9 65 11.8
2011-11-23 08:55:21 51°17.111 2°59.648 66.7 5.8 67 11.9
2011-11-23 08:55:26 51°17.114 2°59.659 66.6 5.8 66 11.9
2011-11-23 08:55:30 51°17.117 2°59.669 66.6 5.8 66 11.9
2011-11-23 08:55:36 51°17.121 2°59.683 66.4 5.8 66 11.8
2011-11-23 08:55:41 51°17.124 2°59.694 66.1 5.7 66 11.8
2011-11-23 08:55:46 51°17.127 2°59.706 66.1 5.7 65 11.9
2011-11-23 08:55:50 51°17.13 2°59.715 65.9 5.7 65 11.8
2011-11-23 08:55:56 51°17.134 2°59.729 65.4 5.7 65 11.9
2011-11-23 08:56:01 51°17.137 2°59.74 65.3 5.7 65 11.8
2011-11-23 08:56:06 51°17.141 2°59.752 65 5.7 65 11.9
2011-11-23 08:56:11 51°17.144 2°59.763 65 5.7 65 11.7
2011-11-23 08:56:16 51°17.148 2°59.775 64.9 5.7 65 11.8
2011-11-23 08:56:21 51°17.151 2°59.786 64.9 5.7 64 11.9
2011-11-23 08:56:26 51°17.154 2°59.797 64.8 5.7 65 11.7
2011-11-23 08:56:30 51°17.157 2°59.806 64.7 5.7 64 11.5
2011-11-23 08:56:36 51°17.161 2°59.82 64.6 5.7 64 11.6
2011-11-23 08:56:41 51°17.165 2°59.831 64.3 5.7 64 12
2011-11-23 08:56:46 51°17.168 2°59.842 64.1 5.7 64 11.9
2011-11-23 08:56:51 51°17.172 2°59.853 64 5.7 63 11.7
2011-11-23 08:56:56 51°17.175 2°59.865 63.6 5.7 64 11.7
2011-11-23 08:57:01 51°17.179 2°59.876 63.5 5.7 64 11.8
2011-11-23 08:57:06 51°17.182 2°59.887 63.3 5.7 64 11.8
2011-11-23 08:57:11 51°17.186 2°59.899 63.2 5.7 63 11.9
2011-11-23 08:57:16 51°17.189 2°59.91 63.2 5.7 63 11.8
2011-11-23 08:57:21 51°17.193 2°59.921 63.1 5.7 62 11.7
2011-11-23 08:57:26 51°17.196 2°59.932 62.9 5.7 63 11.8
2011-11-23 08:57:30 51°17.199 2°59.941 62.7 5.7 62 11.9
2011-11-23 08:57:36 51°17.203 2°59.955 62.5 5.7 63 11.8
2011-11-23 08:57:41 51°17.207 2°59.966 62.3 5.7 62 11.8
2011-11-23 08:57:46 51°17.211 2°59.977 62 5.7 62 11.7
2011-11-23 08:57:50 51°17.214 2°59.986 61.8 5.7 62 11.8
2011-11-23 08:57:56 51°17.218 2°59.999 61.6 5.7 62 11.7
2011-11-23 08:58:01 51°17.222 3°0.01 61.4 5.7 61 11.6
2011-11-23 08:58:06 51°17.225 3°0.021 61.1 5.7 62 11.8
2011-11-23 08:58:10 51°17.229 3°0.03 61 5.7 61 11.7
2011-11-23 08:58:16 51°17.233 3°0.043 60.9 5.7 62 11.7
2011-11-23 08:58:21 51°17.237 3°0.054 60.8 5.7 61 11.7
2011-11-23 08:58:26 51°17.24 3°0.065 60.6 5.6 62 11.8
2011-11-23 08:58:30 51°17.244 3°0.074 60.5 5.7 62 11.8
2011-11-23 08:58:36 51°17.248 3°0.087 60.6 5.7 61 11.8
2011-11-23 08:58:41 51°17.252 3°0.099 60.6 5.7 62 11.8
2011-11-23 08:58:46 51°17.256 3°0.11 60.6 5.7 61 11.7
2011-11-23 08:58:50 51°17.259 3°0.118 60.5 5.7 61 11.7
2011-11-23 08:58:56 51°17.263 3°0.132 61.1 5.7 62 11.8
2011-11-23 08:59:01 51°17.267 3°0.143 61.2 5.8 62 11.7
2011-11-23 08:59:06 51°17.271 3°0.154 61.3 5.8 61 11.7
2011-11-23 08:59:10 51°17.274 3°0.163 61.6 5.8 62 11.8
2011-11-23 08:59:16 51°17.278 3°0.177 61.5 5.8 62 11.7
2011-11-23 08:59:21 51°17.282 3°0.188 61.8 5.8 61 11.7
2011-11-23 08:59:26 51°17.286 3°0.199 61.8 5.8 63 11.8
2011-11-23 08:59:31 51°17.289 3°0.21 61.9 5.7 62 11.6
2011-11-23 08:59:36 51°17.293 3°0.222 62.5 5.8 63 11.8
2011-11-23 08:59:41 51°17.297 3°0.233 62.6 5.8 62 11.8
2011-11-23 08:59:46 51°17.3 3°0.244 63.1 5.8 64 11.8
2011-11-23 08:59:50 51°17.303 3°0.253 63.2 5.8 62 11.8
2011-11-23 08:59:56 51°17.307 3°0.267 63.3 5.7 64 11.8
2011-11-23 09:00:01 51°17.311 3°0.279 63.4 5.8 63 11.9
2011-11-23 09:00:06 51°17.315 3°0.29 63.7 5.8 64 11.8
2011-11-23 09:00:10 51°17.318 3°0.299 64 5.8 64 11.8
2011-11-23 09:00:16 51°17.322 3°0.313 64.1 5.8 64 11.8
2011-11-23 09:00:21 51°17.325 3°0.324 64.2 5.8 63 11.8
2011-11-23 09:00:26 51°17.329 3°0.336 64 5.8 64 11.8
2011-11-23 09:00:30 51°17.332 3°0.345 63.7 5.8 63 11.8
2011-11-23 09:00:36 51°17.336 3°0.359 63.3 5.8 63 11.9
2011-11-23 09:00:41 51°17.34 3°0.37 62.7 5.8 63 11.9
2011-11-23 09:00:46 51°17.344 3°0.381 62.3 5.8 62 11.9
2011-11-23 09:00:50 51°17.347 3°0.39 61.8 5.8 62 11.7
2011-11-23 09:00:56 51°17.351 3°0.404 61.4 5.8 62 11.9
2011-11-23 09:01:01 51°17.355 3°0.415 61.1 5.8 62 11.9
2011-11-23 09:01:06 51°17.359 3°0.426 60.8 5.9 61 11.8
2011-11-23 09:01:11 51°17.363 3°0.438 60.5 5.8 61 11.8
2011-11-23 09:01:16 51°17.367 3°0.449 60.4 5.8 61 11.9
2011-11-23 09:01:21 51°17.371 3°0.46 60.3 5.8 60 11.9
2011-11-23 09:01:26 51°17.375 3°0.471 59.8 5.9 59 11.8
2011-11-23 09:01:30 51°17.378 3°0.48 59.3 5.8 60 11.9
2011-11-23 09:01:36 51°17.383 3°0.493 58.9 5.8 59 11.7
2011-11-23 09:01:41 51°17.388 3°0.504 58.4 5.9 59 11.8
2011-11-23 09:01:46 51°17.392 3°0.515 58 5.9 58 11.7
2011-11-23 09:01:50 51°17.395 3°0.524 57.6 5.8 58 11.7
2011-11-23 09:01:56 51°17.4 3°0.537 57.3 5.9 58 11.2
2011-11-23 09:02:01 51°17.405 3°0.548 56.9 5.8 58 11.9
2011-11-23 09:02:06 51°17.409 3°0.559 56.7 5.9 58 12
2011-11-23 09:02:10 51°17.412 3°0.568 56.5 5.8 57 11.9
2011-11-23 09:02:16 51°17.418 3°0.581 56.4 5.9 59 12
2011-11-23 09:02:21 51°17.422 3°0.592 56.6 5.8 58 11.8
2011-11-23 09:02:26 51°17.426 3°0.604 56.6 5.9 59 11.9
2011-11-23 09:02:30 51°17.43 3°0.612 56.8 5.9 58 11.8
2011-11-23 09:02:36 51°17.435 3°0.626 57.1 5.9 59 12
2011-11-23 09:02:41 51°17.439 3°0.637 57.2 5.9 58 11.8
2011-11-23 09:02:46 51°17.443 3°0.648 57.3 5.9 59 11.9
2011-11-23 09:02:50 51°17.447 3°0.657 57.4 5.9 58 11.8
2011-11-23 09:02:56 51°17.452 3°0.67 57.5 5.9 58 11.8
2011-11-23 09:03:01 51°17.456 3°0.681 57.4 5.9 59 11.8
2011-11-23 09:03:06 51°17.46 3°0.692 57.6 5.9 58 11.9
2011-11-23 09:03:10 51°17.464 3°0.701 57.6 5.9 59 11.8
2011-11-23 09:03:16 51°17.469 3°0.715 57.7 5.9 59 11.8
2011-11-23 09:03:21 51°17.473 3°0.726 58 5.9 59 11.8
2011-11-23 09:03:26 51°17.477 3°0.737 58 5.9 59 11.9
2011-11-23 09:03:31 51°17.481 3°0.749 58.1 5.9 60 11.9
2011-11-23 09:03:36 51°17.486 3°0.759 58.2 5.9 59 12
2011-11-23 09:03:41 51°17.49 3°0.771 58.1 5.8 60 12
2011-11-23 09:03:46 51°17.494 3°0.782 58 5.8 59 11.9
2011-11-23 09:03:50 51°17.497 3°0.791 58.2 5.8 60 12.1
2011-11-23 09:03:56 51°17.502 3°0.804 58.3 5.7 60 11.9
2011-11-23 09:04:01 51°17.506 3°0.815 58.5 5.8 60 12
2011-11-23 09:04:06 51°17.51 3°0.826 58.6 5.7 60 11.9
2011-11-23 09:04:10 51°17.513 3°0.834 58.6 5.7 59 12
2011-11-23 09:04:16 51°17.518 3°0.847 58.8 5.7 60 11.8
2011-11-23 09:04:21 51°17.522 3°0.858 58.8 5.6 60 11.8
2011-11-23 09:04:26 51°17.526 3°0.869 59.2 5.6 61 11.9
2011-11-23 09:04:30 51°17.529 3°0.878 59.6 5.6 60 11.9
2011-11-23 09:04:36 51°17.534 3°0.891 59.8 5.7 60 11.9
2011-11-23 09:04:41 51°17.538 3°0.901 60.1 5.7 59 11.8
2011-11-23 09:04:46 51°17.541 3°0.912 60 5.6 61 11.8
2011-11-23 09:04:50 51°17.544 3°0.921 60.3 5.6 60 11.9
2011-11-23 09:04:56 51°17.549 3°0.933 60.4 5.6 61 11.8
2011-11-23 09:05:01 51°17.553 3°0.944 60.8 5.5 61 11.8
2011-11-23 09:05:06 51°17.556 3°0.955 60.9 5.6 62 12
2011-11-23 09:05:10 51°17.559 3°0.964 61.2 5.6 61 11.8
2011-11-23 09:05:16 51°17.564 3°0.977 61.4 5.6 62 11.9
2011-11-23 09:05:21 51°17.567 3°0.987 61.8 5.5 62 11.7
2011-11-23 09:05:26 51°17.571 3°0.998 61.8 5.5 63 12
2011-11-23 09:05:31 51°17.574 3°1.009 62.5 5.5 63 11.8